Time;durP1;ratioP1;P1;durP2;ratioP2;P2;SDS_P1;SDS_P2;PMS_P1;PMS_P2;Temp;Humidity;BMP_temperature;BMP_pressure;BME280_temperature;BME280_humidity;BME280_pressure;Samples;Min_cycle;Max_cycle;Signal;HPM_P1;HPM_P2
2022/08/02 00:02:02;;;;;;;1.30;0.40;;;;;;;24.42;50.42;100505.56;5010297;28;20412;-73
2022/08/02 00:04:28;;;;;;;0.60;0.60;;;;;;;24.43;50.55;100507.19;5012436;28;20392;-72
2022/08/02 00:06:53;;;;;;;0.85;0.45;;;;;;;24.42;50.33;100511.09;5015724;28;20396;-73
2022/08/02 00:09:18;;;;;;;0.50;0.50;;;;;;;24.36;50.68;100513.28;5014249;28;20496;-72
2022/08/02 00:11:44;;;;;;;0.53;0.53;;;;;;;24.39;50.38;100509.00;5015511;28;20784;-73
2022/08/02 00:14:09;;;;;;;4.27;0.63;;;;;;;24.47;50.24;100513.69;5015462;28;20436;-73
2022/08/02 00:16:35;;;;;;;1.40;0.80;;;;;;;24.51;50.00;100503.53;5030647;28;20439;-73
2022/08/02 00:19:00;;;;;;;1.60;0.47;;;;;;;24.49;49.83;100503.91;5015328;28;20405;-73
2022/08/02 00:21:25;;;;;;;4.10;0.50;;;;;;;24.47;49.97;100503.41;5014158;28;20492;-73
2022/08/02 00:23:51;;;;;;;1.33;0.53;;;;;;;24.45;50.29;100507.66;5015120;28;20432;-72
2022/08/02 00:26:16;;;;;;;1.60;0.50;;;;;;;24.42;50.30;100508.34;5012778;28;20413;-73
2022/08/02 00:28:41;;;;;;;1.90;0.60;;;;;;;24.40;50.07;100508.69;5013957;28;20404;-73
2022/08/02 00:31:07;;;;;;;3.07;0.97;;;;;;;24.36;50.22;100506.91;5015198;28;20803;-73
2022/08/02 00:33:32;;;;;;;3.80;1.38;;;;;;;24.32;50.17;100509.53;5013825;28;20408;-73
2022/08/02 00:35:57;;;;;;;3.67;0.80;;;;;;;24.31;50.24;100512.63;5013610;28;20416;-73
2022/08/02 00:38:22;;;;;;;5.28;1.00;;;;;;;24.27;50.63;100518.84;5015083;28;20476;-73
2022/08/02 00:40:50;;;;;;;4.70;0.88;;;;;;;24.25;50.44;100523.91;5014640;28;20399;-72
2022/08/02 00:43:16;;;;;;;3.35;0.98;;;;;;;24.25;50.80;100528.63;5026775;28;20815;-72
2022/08/02 00:45:42;;;;;;;4.20;0.73;;;;;;;24.14;51.20;100527.38;5014871;28;20446;-73
2022/08/02 00:48:09;;;;;;;2.67;0.70;;;;;;;24.10;51.22;100531.97;5014854;28;20480;-73
2022/08/02 00:50:36;;;;;;;1.60;0.60;;;;;;;24.03;51.13;100531.66;5014943;28;20428;-72
2022/08/02 00:53:02;;;;;;;3.45;0.88;;;;;;;23.96;51.45;100525.81;5014650;28;20800;-72
2022/08/02 00:55:28;;;;;;;1.10;0.60;;;;;;;23.85;52.10;100532.84;5029934;28;20432;-72
2022/08/02 00:57:54;;;;;;;0.90;0.47;;;;;;;23.76;52.37;100528.19;5014677;28;20462;-73
2022/08/02 01:00:20;;;;;;;0.50;0.50;;;;;;;23.74;52.44;100532.44;5013463;28;20392;-73
2022/08/02 01:02:46;;;;;;;1.30;0.60;;;;;;;23.64;52.76;100538.31;5014529;28;20455;-73
2022/08/02 01:05:11;;;;;;;2.90;0.60;;;;;;;23.60;52.73;100537.34;5013244;28;20400;-73
2022/08/02 01:07:37;;;;;;;0.60;0.60;;;;;;;23.59;53.02;100544.00;5014424;28;20829;-73
2022/08/02 01:10:03;;;;;;;0.70;0.70;;;;;;;23.55;53.10;100546.63;5014434;28;20404;-72
2022/08/02 01:12:28;;;;;;;1.20;0.60;;;;;;;23.50;53.42;100546.81;5013240;28;20421;-72
2022/08/02 01:14:59;;;;;;;1.33;0.63;;;;;;;23.53;52.92;100546.16;4996605;28;20464;-73
2022/08/02 01:18:08;;;;;;;1.45;0.60;;;;;;;23.54;53.10;100549.75;5012485;28;20717;-73
2022/08/02 01:21:04;;;;;;;1.30;0.60;;;;;;;23.51;53.27;100542.09;5014153;28;20443;-72
2022/08/02 01:23:57;;;;;;;0.70;0.70;;;;;;;23.57;53.17;100546.31;5029492;28;20951;-73
2022/08/02 01:26:42;;;;;;;2.53;0.57;;;;;;;23.45;53.25;100546.16;5014120;28;20396;-72
2022/08/02 01:29:12;;;;;;;0.73;0.65;;;;;;;23.44;53.75;100539.03;5001186;28;20419;-72
2022/08/02 01:31:49;;;;;;;1.20;0.60;;;;;;;23.57;53.16;100543.53;5014101;28;20389;-72
2022/08/02 01:34:36;;;;;;;0.70;0.70;;;;;;;23.61;53.28;100541.75;5012970;28;20392;-73
2022/08/02 01:37:13;;;;;;;1.50;1.00;;;;;;;23.70;52.86;100537.00;5001159;28;20475;-73
2022/08/02 01:39:41;;;;;;;1.35;0.50;;;;;;;23.75;52.49;100536.81;5012666;28;20401;-73
2022/08/02 01:42:09;;;;;;;0.63;0.63;;;;;;;23.76;52.53;100530.94;5003105;28;20427;-73
2022/08/02 01:44:36;;;;;;;2.95;0.82;;;;;;;23.76;52.60;100530.13;5009985;28;20430;-73
2022/08/02 01:47:06;;;;;;;0.93;0.80;;;;;;;23.71;52.59;100528.34;5013718;28;20466;-73
2022/08/02 01:49:34;;;;;;;4.40;1.13;;;;;;;23.68;52.79;100529.00;5012954;28;20917;-72
2022/08/02 01:52:20;;;;;;;5.18;1.27;;;;;;;23.67;52.78;100540.44;5024241;28;20408;-72
2022/08/02 01:54:49;;;;;;;6.22;2.22;;;;;;;23.61;52.61;100528.69;5013260;28;20396;-72
2022/08/02 01:57:15;;;;;;;5.28;1.98;;;;;;;23.64;52.78;100535.56;5013064;28;20484;-73
2022/08/02 01:59:42;;;;;;;7.03;1.75;;;;;;;23.66;52.64;100536.03;5012960;28;20873;-73
2022/08/02 02:02:11;;;;;;;12.43;1.65;;;;;;;23.70;52.76;100537.00;5012168;28;20523;-72
2022/08/02 02:04:38;;;;;;;7.40;1.60;;;;;;;23.66;52.56;100531.31;5012951;28;20385;-72
2022/08/02 02:07:05;;;;;;;4.65;1.25;;;;;;;23.59;52.75;100532.94;5012052;28;20389;-72
2022/08/02 02:09:35;;;;;;;3.47;1.40;;;;;;;23.49;53.02;100530.53;5012841;28;20400;-72
2022/08/02 02:12:02;;;;;;;6.00;1.52;;;;;;;23.37;53.54;100533.16;5012860;28;20476;-72
2022/08/02 02:14:29;;;;;;;1.70;1.00;;;;;;;23.19;54.19;100527.63;5013168;28;20482;-72
2022/08/02 02:16:57;;;;;;;1.05;0.73;;;;;;;23.15;54.27;100529.41;5013241;28;20395;-73
2022/08/02 02:19:24;;;;;;;1.23;0.60;;;;;;;23.08;54.79;100522.78;5028343;28;20388;-73
2022/08/02 02:21:50;;;;;;;1.67;0.68;;;;;;;23.04;54.89;100521.78;5013049;28;20448;-72
2022/08/02 02:24:15;;;;;;;0.68;0.68;;;;;;;22.99;55.17;100533.00;5012837;28;20397;-72
2022/08/02 02:26:43;;;;;;;1.13;0.90;;;;;;;23.04;54.93;100522.63;5012567;28;20400;-72
2022/08/02 02:29:10;;;;;;;0.75;0.75;;;;;;;23.07;54.95;100524.72;5011943;28;20388;-73
2022/08/02 02:31:39;;;;;;;0.80;0.80;;;;;;;23.03;54.95;100523.75;5012944;28;20876;-72
2022/08/02 02:34:12;;;;;;;0.75;0.65;;;;;;;22.88;55.79;100520.66;5011691;28;20399;-73
2022/08/02 02:36:46;;;;;;;0.90;0.90;;;;;;;22.86;55.61;100520.16;5012765;28;20809;-72
2022/08/02 02:39:14;;;;;;;0.88;0.70;;;;;;;22.81;55.99;100520.34;5012753;28;20389;-73
2022/08/02 02:41:42;;;;;;;0.70;0.70;;;;;;;22.82;56.02;100522.75;5009910;28;20416;-72
2022/08/02 02:44:12;;;;;;;0.73;0.73;;;;;;;22.74;56.20;100529.13;5012943;28;20444;-72
2022/08/02 02:46:39;;;;;;;2.58;0.95;;;;;;;22.68;56.33;100520.19;5012738;28;20396;-72
2022/08/02 02:49:04;;;;;;;1.03;0.80;;;;;;;22.71;56.54;100529.75;5012617;28;20400;-72
2022/08/02 02:51:30;;;;;;;1.00;0.70;;;;;;;22.72;56.38;100529.41;5012693;28;20397;-73
2022/08/02 02:53:56;;;;;;;0.60;0.60;;;;;;;22.73;56.46;100530.25;5012558;28;20400;-73
2022/08/02 02:56:23;;;;;;;1.15;0.82;;;;;;;22.75;56.51;100523.25;5012538;28;20400;-73
2022/08/02 02:58:49;;;;;;;0.90;0.85;;;;;;;22.74;56.64;100534.63;5011378;28;20420;-73
2022/08/02 03:01:29;;;;;;;1.77;0.80;;;;;;;22.74;56.56;100534.63;5012728;28;20393;-72
2022/08/02 03:03:56;;;;;;;1.00;0.90;;;;;;;22.73;56.57;100533.81;5012264;28;20474;-73
2022/08/02 03:06:21;;;;;;;2.33;0.80;;;;;;;22.72;56.91;100534.94;5012504;28;20418;-73
2022/08/02 03:08:47;;;;;;;0.80;0.80;;;;;;;22.60;57.15;100531.97;5012221;28;20393;-73
2022/08/02 03:11:13;;;;;;;0.97;0.97;;;;;;;22.63;57.22;100530.53;5012263;28;20405;-72
2022/08/02 03:13:39;;;;;;;2.75;0.82;;;;;;;22.71;57.05;100533.34;5012216;28;20404;-72
2022/08/02 03:16:05;;;;;;;1.27;0.73;;;;;;;22.87;56.71;100539.19;5011704;28;20389;-73
2022/08/02 03:18:36;;;;;;;1.50;0.80;;;;;;;22.80;56.89;100533.34;5012044;28;20412;-72
2022/08/02 03:21:06;;;;;;;0.98;0.98;;;;;;;22.75;56.90;100534.28;5010926;28;20393;-72
2022/08/02 03:23:33;;;;;;;0.90;0.90;;;;;;;22.82;57.01;100541.31;5012045;28;20451;-73
2022/08/02 03:25:59;;;;;;;1.30;0.70;;;;;;;22.64;57.59;100537.69;5012100;28;21016;-73
2022/08/02 03:28:24;;;;;;;1.65;0.82;;;;;;;22.46;58.27;100542.34;5010616;28;20401;-72
2022/08/02 03:30:50;;;;;;;1.30;1.10;;;;;;;22.40;58.84;100542.81;5011981;28;20423;-74
2022/08/02 03:33:17;;;;;;;1.70;0.90;;;;;;;22.40;58.85;100548.34;5007430;28;20434;-74
2022/08/02 03:35:44;;;;;;;5.15;0.90;;;;;;;22.33;59.14;100545.28;5009845;28;20500;-75
2022/08/02 03:38:12;;;;;;;3.40;0.98;;;;;;;22.33;59.17;100545.28;5010061;28;20392;-74
2022/08/02 03:40:38;;;;;;;0.90;0.90;;;;;;;22.23;59.31;100544.41;4990031;28;20469;-74
2022/08/02 03:43:05;;;;;;;0.82;0.82;;;;;;;22.28;59.39;100548.97;5015650;28;20444;-74
2022/08/02 03:45:31;;;;;;;1.10;0.93;;;;;;;22.37;59.06;100543.47;5008770;28;21100;-75
2022/08/02 03:47:57;;;;;;;0.90;0.90;;;;;;;22.36;59.29;100545.41;4994198;28;20385;-74
2022/08/02 03:50:24;;;;;;;1.20;0.90;;;;;;;22.29;59.62;100550.63;5010288;28;20455;-74
2022/08/02 03:52:50;;;;;;;0.93;0.90;;;;;;;22.22;59.78;100547.50;5010998;28;20397;-75
2022/08/02 03:55:15;;;;;;;0.90;0.90;;;;;;;22.21;60.09;100552.22;5011667;28;20772;-74
2022/08/02 03:57:41;;;;;;;2.97;2.40;;;;;;;22.19;59.96;100548.16;5010605;28;20925;-74
2022/08/02 04:00:09;;;;;;;1.58;1.48;;;;;;;22.20;60.02;100550.56;5011692;28;20412;-74
2022/08/02 04:02:35;;;;;;;2.20;2.10;;;;;;;22.22;59.90;100556.59;5011585;28;20451;-74
2022/08/02 04:05:01;;;;;;;2.90;2.33;;;;;;;22.25;59.95;100555.16;5026685;28;20413;-74
2022/08/02 04:07:26;;;;;;;1.50;1.30;;;;;;;22.34;59.94;100544.94;4993776;28;20389;-75
2022/08/02 04:09:51;;;;;;;1.17;1.07;;;;;;;22.42;59.62;100541.41;5009593;28;20915;-74
2022/08/02 04:12:17;;;;;;;2.10;1.50;;;;;;;22.44;59.56;100550.16;5011547;28;20480;-75
2022/08/02 04:14:43;;;;;;;1.48;1.30;;;;;;;22.43;59.72;100555.97;5009709;28;20416;-74
2022/08/02 04:17:11;;;;;;;2.90;1.20;;;;;;;22.39;59.80;100555.03;5011365;28;20954;-74
2022/08/02 04:19:41;;;;;;;1.90;1.13;;;;;;;22.47;59.69;100555.03;5011355;28;20393;-74
2022/08/02 04:22:15;;;;;;;1.30;1.02;;;;;;;22.54;59.37;100554.56;5011219;28;20473;-74
2022/08/02 04:24:44;;;;;;;7.80;1.30;;;;;;;22.53;59.44;100553.75;5010063;28;20403;-74
2022/08/02 04:27:09;;;;;;;1.27;1.17;;;;;;;22.50;59.86;100559.91;5011411;28;20919;-74
2022/08/02 04:29:35;;;;;;;1.70;1.10;;;;;;;22.53;59.75;100550.16;5008262;28;20418;-75
2022/08/02 04:32:03;;;;;;;2.83;1.02;;;;;;;22.58;59.73;100552.78;5011435;28;20397;-74
2022/08/02 04:34:29;;;;;;;1.20;1.20;;;;;;;22.68;59.51;100555.28;5009550;28;20876;-74
2022/08/02 04:36:55;;;;;;;1.52;1.52;;;;;;;22.73;59.28;100553.16;5006087;28;20544;-74
2022/08/02 04:39:20;;;;;;;1.30;1.20;;;;;;;22.74;59.10;100554.78;5011158;28;20856;-74
2022/08/02 04:41:46;;;;;;;3.97;1.07;;;;;;;22.76;59.10;100559.97;5010674;28;20400;-74
2022/08/02 04:44:12;;;;;;;3.55;1.27;;;;;;;22.66;59.16;100561.09;5011232;28;20397;-74
2022/08/02 04:46:39;;;;;;;5.87;1.30;;;;;;;22.62;59.24;100557.31;4993332;28;20411;-74
2022/08/02 04:49:05;;;;;;;3.35;1.30;;;;;;;22.65;59.44;100550.38;5008933;28;20389;-74
2022/08/02 04:51:36;;;;;;;2.63;1.10;;;;;;;22.70;59.33;100553.81;5011813;28;20400;-75
2022/08/02 04:54:03;;;;;;;2.65;1.10;;;;;;;22.76;59.41;100559.97;5014769;28;20409;-74
2022/08/02 04:56:28;;;;;;;4.03;1.90;;;;;;;22.70;59.73;100558.50;5010442;28;20417;-75
2022/08/02 04:58:53;;;;;;;2.23;1.43;;;;;;;22.73;59.51;100566.16;5012155;28;20408;-74
2022/08/02 05:01:19;;;;;;;1.25;1.17;;;;;;;22.79;59.47;100564.84;5014486;28;20423;-74
2022/08/02 05:03:44;;;;;;;1.20;1.10;;;;;;;22.85;59.10;100569.13;5013190;28;20533;-74
2022/08/02 05:06:09;;;;;;;2.27;1.10;;;;;;;22.89;58.92;100561.78;5006095;28;20767;-75
2022/08/02 05:08:34;;;;;;;1.17;1.17;;;;;;;22.91;59.09;100567.81;5014293;28;20394;-74
2022/08/02 05:11:03;;;;;;;1.30;1.30;;;;;;;22.95;58.75;100565.22;5014302;28;20416;-75
2022/08/02 05:13:28;;;;;;;2.53;1.50;;;;;;;22.98;58.60;100568.16;5013811;28;20463;-74
2022/08/02 05:15:54;;;;;;;1.40;1.30;;;;;;;22.98;58.49;100570.91;5008726;28;20391;-75
2022/08/02 05:18:19;;;;;;;1.77;1.20;;;;;;;22.99;58.44;100572.50;5010125;28;20400;-74
2022/08/02 05:20:44;;;;;;;1.85;1.48;;;;;;;22.99;58.63;100558.69;5014100;28;20985;-74
2022/08/02 05:23:09;;;;;;;2.17;1.30;;;;;;;23.02;58.45;100560.81;5013665;28;20790;-74
2022/08/02 05:25:35;;;;;;;2.23;1.40;;;;;;;23.04;58.43;100564.06;5013598;28;20400;-74
2022/08/02 05:28:00;;;;;;;1.37;1.27;;;;;;;22.97;59.00;100565.69;5014501;28;20396;-74
2022/08/02 05:30:29;;;;;;;2.13;1.60;;;;;;;22.86;59.65;100559.66;4998590;28;20418;-74
2022/08/02 05:32:54;;;;;;;2.08;1.35;;;;;;;22.87;59.56;100563.25;5006488;28;20474;-74
2022/08/02 05:35:21;;;;;;;1.53;1.43;;;;;;;22.84;59.46;100561.94;5013357;28;20868;-74
2022/08/02 05:37:47;;;;;;;3.70;1.58;;;;;;;;;;5013531;28;20432;-74
2022/08/02 05:40:12;;;;;;;2.70;1.65;;;;;;;22.98;58.73;100570.09;5009029;28;20862;-74
2022/08/02 05:42:38;;;;;;;1.90;1.30;;;;;;;22.93;59.43;100573.81;5011086;28;20555;-74
2022/08/02 05:45:04;;;;;;;1.63;1.43;;;;;;;22.86;60.25;100572.66;5011089;28;20499;-74
2022/08/02 05:47:29;;;;;;;1.75;1.52;;;;;;;22.82;60.56;100574.47;5010114;28;20421;-74
2022/08/02 05:49:55;;;;;;;1.60;1.50;;;;;;;22.87;60.48;100571.53;5009126;28;20459;-74
2022/08/02 05:52:23;;;;;;;1.90;1.50;;;;;;;22.85;60.41;100579.34;5012161;28;20435;-75
2022/08/02 05:55:14;;;;;;;2.08;1.52;;;;;;;22.91;60.58;100578.88;5012283;28;20733;-75
2022/08/02 05:58:01;;;;;;;2.25;1.58;;;;;;;22.77;61.07;100580.97;5012470;28;20420;-75
2022/08/02 06:00:30;;;;;;;4.00;1.70;;;;;;;22.68;61.42;100580.13;5002716;28;20417;-74
2022/08/02 06:03:25;;;;;;;1.80;1.70;;;;;;;22.74;61.34;100579.66;5008707;28;20498;-75
2022/08/02 06:06:12;;;;;;;1.73;1.70;;;;;;;22.71;61.19;100583.06;5009941;28;20403;-75
2022/08/02 06:08:41;;;;;;;3.05;1.95;;;;;;;22.67;61.16;100587.59;5015371;28;20954;-75
2022/08/02 06:11:12;;;;;;;2.53;2.10;;;;;;;22.66;61.45;100587.91;5011032;28;20420;-75
2022/08/02 06:13:39;;;;;;;1.92;1.83;;;;;;;22.76;61.00;100590.38;5011501;28;20432;-75
2022/08/02 06:16:05;;;;;;;1.70;1.60;;;;;;;22.80;61.12;100591.38;5012973;28;20885;-75
2022/08/02 06:18:32;;;;;;;1.92;1.77;;;;;;;22.85;60.77;100591.22;5010527;28;20479;-75
2022/08/02 06:21:01;;;;;;;2.50;1.60;;;;;;;22.94;60.45;100582.94;5009793;28;20465;-75
2022/08/02 06:23:28;;;;;;;3.42;1.70;;;;;;;23.01;60.06;100583.25;5005055;28;20508;-75
2022/08/02 06:25:55;;;;;;;3.10;1.80;;;;;;;23.10;59.67;100579.34;5018070;28;20413;-74
2022/08/02 06:28:21;;;;;;;1.90;1.90;;;;;;;23.15;59.40;100573.66;5011373;28;20413;-75
2022/08/02 06:30:46;;;;;;;1.80;1.70;;;;;;;23.15;59.22;100581.94;5011270;28;20463;-75
2022/08/02 06:33:12;;;;;;;2.13;2.03;;;;;;;23.16;59.21;100583.59;5014612;28;20455;-75
2022/08/02 06:35:45;;;;;;;3.47;2.30;;;;;;;23.12;59.07;100582.59;5018647;28;20738;-74
2022/08/02 06:38:17;;;;;;;2.17;2.08;;;;;;;23.19;58.19;100585.69;5007978;28;20429;-75
2022/08/02 06:40:53;;;;;;;2.10;2.00;;;;;;;23.21;57.40;100591.72;5010944;28;20450;-75
2022/08/02 06:43:29;;;;;;;3.50;2.63;;;;;;;23.26;57.06;100585.19;5009453;28;20441;-75
2022/08/02 06:45:55;;;;;;;2.30;2.20;;;;;;;23.24;56.92;100593.03;5010904;28;20409;-76
2022/08/02 06:48:20;;;;;;;2.80;2.33;;;;;;;23.23;57.33;100591.38;5012228;28;20466;-74
2022/08/02 06:50:46;;;;;;;2.27;2.13;;;;;;;23.26;56.99;100593.50;5011360;28;20960;-74
2022/08/02 06:53:11;;;;;;;2.03;1.93;;;;;;;23.27;57.21;100587.66;5011875;28;20412;-75
2022/08/02 06:55:36;;;;;;;2.30;1.83;;;;;;;23.32;57.20;100588.59;5011786;28;20429;-75
2022/08/02 06:58:02;;;;;;;2.20;2.00;;;;;;;23.39;56.97;100580.63;5011036;28;20405;-74
2022/08/02 07:00:28;;;;;;;2.43;1.87;;;;;;;23.46;56.96;100580.97;5010427;28;20412;-74
2022/08/02 07:02:53;;;;;;;4.03;2.30;;;;;;;23.51;57.02;100580.81;5009804;28;20424;-74
2022/08/02 07:05:19;;;;;;;2.30;2.10;;;;;;;23.55;56.96;100584.53;5008969;28;20414;-74
2022/08/02 07:07:44;;;;;;;2.03;1.93;;;;;;;23.60;57.05;100595.44;5010137;28;20432;-74
2022/08/02 07:10:12;;;;;;;1.98;1.88;;;;;;;23.65;56.94;100592.50;5009915;28;20521;-73
2022/08/02 07:12:37;;;;;;;1.77;1.73;;;;;;;23.74;56.37;100596.88;5003341;28;20509;-73
2022/08/02 07:15:05;;;;;;;2.00;1.90;;;;;;;23.84;56.18;100589.38;5007713;28;20492;-73
2022/08/02 07:17:31;;;;;;;2.55;1.70;;;;;;;23.91;55.67;100590.47;5011554;28;20400;-73
2022/08/02 07:19:57;;;;;;;2.37;2.17;;;;;;;23.97;55.67;100594.72;5010978;28;20393;-73
2022/08/02 07:22:23;;;;;;;2.00;1.90;;;;;;;24.02;55.40;100596.47;5008904;28;20416;-73
2022/08/02 07:24:49;;;;;;;1.95;1.85;;;;;;;23.96;55.69;100601.38;5012061;28;20397;-74
2022/08/02 07:27:15;;;;;;;1.88;1.77;;;;;;;23.92;56.06;100594.06;5003527;28;20416;-73
2022/08/02 07:29:40;;;;;;;2.33;2.13;;;;;;;23.93;56.02;100604.00;5010817;28;20391;-73
2022/08/02 07:32:06;;;;;;;1.80;1.70;;;;;;;23.94;55.85;100600.09;5011308;28;20397;-73
2022/08/02 07:34:31;;;;;;;2.10;2.00;;;;;;;23.97;55.91;100596.66;5009822;28;20405;-73
2022/08/02 07:36:57;;;;;;;2.08;1.83;;;;;;;24.02;55.85;100594.50;5011749;28;20770;-73
2022/08/02 07:39:22;;;;;;;4.37;2.20;;;;;;;24.09;55.57;100594.00;5008046;28;20443;-73
2022/08/02 07:41:50;;;;;;;5.07;2.17;;;;;;;24.19;55.63;100597.25;5007867;28;20527;-73
2022/08/02 07:44:16;;;;;;;4.13;1.83;;;;;;;24.36;55.06;100595.56;5007338;28;20448;-73
2022/08/02 07:46:41;;;;;;;2.67;2.40;;;;;;;24.49;54.78;100600.03;5009907;28;20467;-73
2022/08/02 07:49:06;;;;;;;4.73;2.13;;;;;;;24.57;54.44;100604.72;5011321;28;20393;-73
2022/08/02 07:51:32;;;;;;;3.60;2.13;;;;;;;24.59;54.50;100597.72;5010536;28;20386;-73
2022/08/02 07:53:57;;;;;;;3.47;2.33;;;;;;;24.56;54.53;100600.34;5009336;28;20934;-73
2022/08/02 07:56:23;;;;;;;2.37;2.10;;;;;;;24.54;54.60;100592.34;5026805;28;20400;-73
2022/08/02 07:58:48;;;;;;;3.13;2.10;;;;;;;24.53;54.30;100595.47;5011494;28;20535;-73
2022/08/02 08:01:13;;;;;;;2.30;2.20;;;;;;;24.55;54.48;100590.38;4993956;28;20414;-73
2022/08/02 08:03:39;;;;;;;2.70;2.27;;;;;;;24.54;54.09;100583.22;5008552;28;20907;-73
2022/08/02 08:06:04;;;;;;;2.35;2.25;;;;;;;24.53;54.54;100582.44;5005447;28;20405;-73
2022/08/02 08:08:29;;;;;;;4.15;2.38;;;;;;;24.56;54.53;100587.28;5016456;28;20453;-73
2022/08/02 08:10:55;;;;;;;2.63;2.40;;;;;;;24.62;54.33;100593.44;5011450;28;20435;-74
2022/08/02 08:13:20;;;;;;;3.97;2.53;;;;;;;24.63;54.44;100586.75;5010104;28;20407;-75
2022/08/02 08:15:45;;;;;;;7.60;2.40;;;;;;;24.65;54.38;100579.72;5005355;28;20416;-73
2022/08/02 08:18:11;;;;;;;3.30;2.73;;;;;;;24.73;54.32;100581.63;5010719;28;20868;-73
2022/08/02 08:20:36;;;;;;;6.57;2.40;;;;;;;24.79;53.77;100574.75;5009402;28;20451;-73
2022/08/02 08:23:02;;;;;;;70.90;9.77;;;;;;;24.83;53.58;100576.88;5010752;28;20959;-73
2022/08/02 08:25:27;;;;;;;22.35;3.35;;;;;;;24.86;53.45;100574.25;5009608;28;20397;-73
2022/08/02 08:27:52;;;;;;;17.23;3.42;;;;;;;24.90;53.59;100572.41;5021623;28;20741;-73
2022/08/02 08:30:19;;;;;;;12.57;3.38;;;;;;;24.97;53.08;100572.69;5013706;28;20462;-72
2022/08/02 08:32:45;;;;;;;2.40;2.27;;;;;;;25.06;53.04;100570.63;5013704;28;20496;-73
2022/08/02 08:35:13;;;;;;;10.40;2.88;;;;;;;25.21;52.44;100572.00;5008292;28;21026;-73
2022/08/02 08:37:39;;;;;;;3.17;2.20;;;;;;;25.28;51.86;100575.84;5013589;28;20769;-73
2022/08/02 08:40:06;;;;;;;2.85;2.50;;;;;;;25.35;51.77;100578.06;5024500;28;20393;-73
2022/08/02 08:42:32;;;;;;;2.70;2.30;;;;;;;25.45;51.43;100571.28;5013223;28;20420;-72
2022/08/02 08:44:58;;;;;;;4.38;2.80;;;;;;;25.55;51.00;100565.34;5012012;28;20431;-72
2022/08/02 08:47:33;;;;;;;4.10;2.43;;;;;;;25.66;50.29;100580.41;4999557;28;20405;-73
2022/08/02 08:50:03;;;;;;;3.07;2.73;;;;;;;25.71;50.14;100578.22;5015040;28;20396;-73
2022/08/02 08:52:32;;;;;;;2.75;2.50;;;;;;;25.77;50.26;100571.31;5028617;28;20535;-74
2022/08/02 08:54:57;;;;;;;2.67;2.47;;;;;;;25.89;50.15;100564.13;5009551;28;20455;-73
2022/08/02 08:57:23;;;;;;;2.97;2.60;;;;;;;25.99;49.67;100566.47;5013370;28;20400;-74
2022/08/02 08:59:48;;;;;;;5.20;2.53;;;;;;;26.12;49.24;100565.31;5014624;28;20389;-73
2022/08/02 09:02:14;;;;;;;2.92;2.25;;;;;;;26.23;48.58;100555.41;5001446;28;20426;-73
2022/08/02 09:04:39;;;;;;;2.13;2.03;;;;;;;26.31;48.30;100560.06;5011210;28;20427;-73
2022/08/02 09:07:04;;;;;;;2.27;2.17;;;;;;;26.41;47.83;100548.44;5011819;28;20444;-72
2022/08/02 09:09:29;;;;;;;2.53;2.33;;;;;;;26.52;47.57;100549.59;5013588;28;20684;-73
2022/08/02 09:12:12;;;;;;;2.23;2.10;;;;;;;26.66;46.90;100550.06;5009386;28;20409;-73
2022/08/02 09:14:37;;;;;;;2.20;2.10;;;;;;;26.79;47.16;100554.44;5011040;28;20424;-73
2022/08/02 09:17:08;;;;;;;2.30;2.20;;;;;;;26.90;47.09;100548.41;5019557;28;20453;-74
2022/08/02 09:19:35;;;;;;;3.63;2.28;;;;;;;27.05;46.94;100550.44;5012810;28;20421;-73
2022/08/02 09:22:13;;;;;;;3.72;2.42;;;;;;;27.14;46.53;100557.47;5008831;28;20439;-73
2022/08/02 09:24:50;;;;;;;2.35;2.22;;;;;;;27.30;45.96;100569.47;5023031;28;20405;-73
2022/08/02 09:27:21;;;;;;;2.20;2.00;;;;;;;27.50;45.32;100561.31;5011070;28;20950;-72
2022/08/02 09:29:48;;;;;;;3.30;1.90;;;;;;;27.50;45.17;100550.94;5010742;28;20464;-73
2022/08/02 09:32:16;;;;;;;2.23;2.03;;;;;;;27.59;45.10;100550.81;5009630;28;20801;-72
2022/08/02 09:34:47;;;;;;;3.13;2.05;;;;;;;27.73;45.07;100554.78;5028128;28;20733;-73
2022/08/02 09:37:29;;;;;;;3.90;2.83;;;;;;;27.88;44.49;100547.59;5006419;28;20418;-73
2022/08/02 09:39:59;;;;;;;2.70;1.98;;;;;;;28.05;44.16;100543.66;5007283;28;20831;-73
2022/08/02 09:42:25;;;;;;;2.70;2.08;;;;;;;28.29;43.56;100546.25;5009836;28;20420;-74
2022/08/02 09:44:55;;;;;;;1.67;1.60;;;;;;;28.47;42.71;100541.91;5017846;28;20478;-73
2022/08/02 09:47:20;;;;;;;3.30;1.73;;;;;;;28.67;42.21;100542.81;5010471;28;20760;-73
2022/08/02 09:49:46;;;;;;;2.20;2.00;;;;;;;28.83;42.17;100540.78;5015604;28;20433;-73
2022/08/02 09:52:12;;;;;;;2.05;1.85;;;;;;;28.96;41.87;100531.09;5012488;28;20983;-72
2022/08/02 09:54:38;;;;;;;1.77;1.52;;;;;;;29.10;41.03;100545.34;5019431;28;20492;-72
2022/08/02 09:57:04;;;;;;;2.20;1.50;;;;;;;29.29;40.22;100544.56;5014868;28;20902;-72
2022/08/02 09:59:29;;;;;;;1.80;1.70;;;;;;;28.88;41.16;100534.09;5029223;28;20411;-72
2022/08/02 10:01:56;;;;;;;5.67;1.87;;;;;;;28.84;41.11;100540.41;5012426;28;20409;-72
2022/08/02 10:04:24;;;;;;;1.60;1.58;;;;;;;29.60;39.76;100541.59;5012299;28;20875;-73
2022/08/02 10:06:51;;;;;;;3.58;2.10;;;;;;;30.23;39.24;100539.09;5013340;28;20793;-73
2022/08/02 10:09:17;;;;;;;4.57;1.97;;;;;;;31.11;37.57;100538.81;5015381;28;20409;-73
2022/08/02 10:11:43;;;;;;;1.88;1.77;;;;;;;32.17;35.56;100532.34;5012843;28;20470;-73
2022/08/02 10:14:09;;;;;;;2.90;1.60;;;;;;;33.14;34.03;100545.78;5013275;28;20793;-73
2022/08/02 10:16:38;;;;;;;2.25;1.60;;;;;;;32.52;34.25;100545.81;5013229;28;20393;-72
2022/08/02 10:19:04;;;;;;;3.43;1.80;;;;;;;31.50;35.89;100545.69;5009412;28;20420;-72
2022/08/02 10:21:48;;;;;;;2.00;1.90;;;;;;;32.76;34.25;100530.34;5009317;28;20416;-73
2022/08/02 10:24:17;;;;;;;1.92;1.63;;;;;;;34.59;31.70;100540.34;5001532;28;20424;-73
2022/08/02 10:26:45;;;;;;;1.55;1.45;;;;;;;35.58;30.00;100531.53;5021821;28;20411;-72
2022/08/02 10:29:17;;;;;;;2.10;1.55;;;;;;;36.14;28.81;100527.53;5007222;28;20510;-73
2022/08/02 10:31:51;;;;;;;1.93;1.83;;;;;;;36.86;27.83;100527.19;5006520;28;20424;-73
2022/08/02 10:34:22;;;;;;;1.52;1.50;;;;;;;37.62;26.70;100522.97;5002007;28;20892;-73
2022/08/02 10:36:49;;;;;;;1.70;1.50;;;;;;;38.13;25.75;100523.81;5008573;28;20510;-73
2022/08/02 10:39:14;;;;;;;1.52;1.52;;;;;;;38.61;24.96;100521.31;5012115;28;20492;-73
2022/08/02 10:41:50;;;;;;;1.30;1.30;;;;;;;39.15;24.21;100523.88;5012302;28;20487;-73
2022/08/02 10:44:25;;;;;;;1.40;1.40;;;;;;;39.39;24.18;100526.19;5010932;28;20478;-73
2022/08/02 10:47:15;;;;;;;1.52;1.42;;;;;;;39.54;23.56;100514.50;5010860;28;22426;-73
2022/08/02 10:49:51;;;;;;;1.27;1.27;;;;;;;40.10;22.74;100509.50;5004847;28;20409;-73
2022/08/02 10:52:18;;;;;;;2.78;1.65;;;;;;;40.54;21.94;100508.75;5012632;28;20592;-73
2022/08/02 10:54:49;;;;;;;1.55;1.45;;;;;;;40.28;21.96;100507.00;5010532;28;20399;-73
2022/08/02 10:57:25;;;;;;;2.10;2.00;;;;;;;37.38;25.02;100507.16;5010146;28;20505;-70
2022/08/02 11:00:33;;;;;;;1.27;1.25;;;;;;;35.70;28.02;100498.03;5010262;28;21038;-73
2022/08/02 11:02:58;;;;;;;1.52;1.52;;;;;;;35.09;28.71;100499.56;4973420;28;20775;-73
2022/08/02 11:05:33;;;;;;;4.40;1.80;;;;;;;35.07;28.54;100493.56;5009952;28;20409;-72
2022/08/02 11:08:18;;;;;;;1.50;1.50;;;;;;;34.74;28.75;100499.72;5011610;28;20397;-72
2022/08/02 11:10:43;;;;;;;1.38;1.38;;;;;;;34.50;29.39;100495.75;5010108;28;20520;-73
2022/08/02 11:13:14;;;;;;;1.50;1.40;;;;;;;36.80;26.42;100495.00;5012015;28;20405;-73
2022/08/02 11:16:00;;;;;;;1.40;1.40;;;;;;;37.97;24.10;100495.38;5010903;28;20393;-73
2022/08/02 11:18:50;;;;;;;1.65;1.40;;;;;;;39.56;22.45;100495.00;5008376;28;20462;-73
2022/08/02 11:21:27;;;;;;;1.27;1.27;;;;;;;40.30;20.98;100488.28;5000399;28;20438;-73
2022/08/02 11:23:53;;;;;;;1.38;1.30;;;;;;;40.69;20.96;100492.09;5010605;28;20420;-73
2022/08/02 11:26:28;;;;;;;1.70;1.50;;;;;;;40.99;20.47;100485.16;5011964;28;20846;-73
2022/08/02 11:28:53;;;;;;;1.10;1.10;;;;;;;41.05;20.16;100486.19;5009049;28;20409;-70
2022/08/02 11:31:19;;;;;;;1.27;1.27;;;;;;;41.28;19.73;100483.03;5010777;28;20423;-73
2022/08/02 11:33:47;;;;;;;1.70;1.60;;;;;;;41.41;20.18;100484.66;5006086;28;20466;-73